RS-0005 weather

Aerodrom Vojka Nova Pazova
Serbia

Public forecast

Using degrees Celsius for public forecast. Weather courtesy of forecast.io.

METAR (pilot weather report)

Closest report is Batajnica Air Base, 3.7 nm (6.8 km) E. Retrieved 2019/06/16 16:30 UTC (0 seconds ago):

LYBT 161630Z 04003KT 020V080 CAVOK 31/17 Q1011 NOSIG

TAF (pilot weather forecast)

Closest forecast is Batajnica Air Base, 3.7 nm (6.8 km) E. Retrieved 2019/06/16 12:00 UTC (4 hours ago):

TAF LYBT 161100Z 1612/1712 07007KT CAVOK TX33/1614Z TN18/1703Z PROB40 TEMPO 1618/1621 VRB15KT 4000 TSRA SCT027CB BKN035 BECMG 1701/1703 27010KT TEMPO 1703/1709 27015G35KT 3000 TSRA SCT027CB BKN030